createdAt,value
2023-04-12T00:02:33.026Z,11.60
2023-04-12T00:05:17.301Z,16.52
2023-04-12T00:08:10.379Z,10.75
2023-04-12T00:10:59.727Z,10.68
2023-04-12T00:13:40.478Z,12.98
2023-04-12T00:16:21.853Z,11.57
2023-04-12T00:19:13.421Z,12.40
2023-04-12T00:21:59.767Z,13.38
2023-04-12T00:24:39.906Z,11.90
2023-04-12T00:27:17.519Z,12.68
2023-04-12T00:30:07.601Z,12.02
2023-04-12T00:32:53.874Z,11.75
2023-04-12T00:38:12.022Z,12.80
2023-04-12T00:41:06.297Z,14.20
2023-04-12T00:43:48.243Z,13.27
2023-04-12T00:46:29.760Z,14.52
2023-04-12T00:49:10.646Z,12.90
2023-04-12T00:52:00.083Z,13.02
2023-04-12T00:54:45.167Z,12.50
2023-04-12T00:57:27.520Z,12.40
2023-04-12T01:00:17.949Z,13.80
2023-04-12T01:03:02.508Z,11.85
2023-04-12T01:05:45.922Z,11.48
2023-04-12T01:08:28.292Z,11.57
2023-04-12T01:11:27.225Z,12.88
2023-04-12T01:14:16.273Z,14.90
2023-04-12T01:16:58.731Z,11.75
2023-04-12T01:19:47.563Z,13.38
2023-04-12T01:23:22.211Z,13.65
2023-04-12T01:26:24.168Z,10.25
2023-04-12T01:29:11.088Z,12.68
2023-04-12T01:32:16.588Z,14.35
2023-04-12T01:35:03.041Z,15.50
2023-04-12T01:37:48.483Z,14.30
2023-04-12T01:40:38.505Z,14.85
2023-04-12T01:43:19.509Z,15.52
2023-04-12T01:45:58.213Z,13.10
2023-04-12T01:48:40.187Z,13.05
2023-04-12T01:51:26.821Z,14.23
2023-04-12T01:54:25.271Z,15.05
2023-04-12T01:57:08.650Z,15.95
2023-04-12T01:59:49.338Z,14.95
2023-04-12T02:02:36.208Z,16.35
2023-04-12T02:07:57.226Z,14.27
2023-04-12T02:10:43.785Z,15.30
2023-04-12T02:13:31.751Z,16.60
2023-04-12T02:16:15.554Z,18.60
2023-04-12T02:18:56.662Z,15.32
2023-04-12T02:21:53.601Z,16.52
2023-04-12T02:24:40.010Z,15.85
2023-04-12T02:27:29.047Z,15.80
2023-04-12T02:30:12.962Z,14.30
2023-04-12T02:32:51.659Z,15.07
2023-04-12T02:38:40.949Z,15.77
2023-04-12T02:41:28.154Z,21.50
2023-04-12T02:44:14.751Z,18.45
2023-04-12T02:47:15.650Z,14.65
2023-04-12T02:50:02.903Z,16.38
2023-04-12T02:52:51.585Z,14.00
2023-04-12T02:55:33.212Z,17.83
2023-04-12T02:58:25.532Z,14.27
2023-04-12T03:01:08.019Z,12.95
2023-04-12T03:04:11.989Z,14.32
2023-04-12T03:07:11.619Z,11.68
2023-04-12T03:10:13.387Z,14.43
2023-04-12T03:13:16.194Z,13.57
2023-04-12T03:16:03.822Z,14.68
2023-04-12T03:18:52.166Z,15.45
2023-04-12T03:21:37.149Z,16.20
2023-04-12T03:24:17.984Z,17.73
2023-04-12T03:29:52.066Z,17.73
2023-04-12T03:32:33.814Z,19.05
2023-04-12T03:35:18.223Z,18.80
2023-04-12T03:38:06.924Z,17.17
2023-04-12T03:40:55.308Z,17.65
2023-04-12T03:43:45.794Z,16.35
2023-04-12T03:46:43.819Z,17.25
2023-04-12T03:49:28.540Z,17.05
2023-04-12T03:52:15.928Z,15.30
2023-04-12T03:55:06.200Z,14.07
2023-04-12T03:58:01.572Z,15.13
2023-04-12T04:00:51.250Z,16.13
2023-04-12T04:03:44.736Z,15.93
2023-04-12T04:06:44.154Z,15.00
2023-04-12T04:09:26.209Z,16.25
2023-04-12T04:12:10.457Z,14.65
2023-04-12T04:15:03.659Z,16.08
2023-04-12T04:17:53.515Z,15.43
2023-04-12T04:20:46.016Z,13.32
2023-04-12T04:23:40.150Z,13.63
2023-04-12T04:26:42.377Z,14.60
2023-04-12T04:29:32.804Z,14.68
2023-04-12T04:32:15.906Z,16.77
2023-04-12T04:35:01.494Z,16.02
2023-04-12T04:37:52.173Z,15.52
2023-04-12T04:40:42.590Z,14.98
2023-04-12T04:43:30.400Z,14.88
2023-04-12T04:46:12.052Z,12.68
2023-04-12T04:48:55.349Z,13.30
2023-04-12T04:51:41.296Z,14.50
2023-04-12T04:54:23.335Z,14.63
2023-04-12T04:57:11.815Z,14.48
2023-04-12T05:00:10.701Z,12.88
2023-04-12T05:03:04.412Z,12.15
2023-04-12T05:05:49.142Z,12.90
2023-04-12T05:08:36.047Z,12.52
2023-04-12T05:11:22.734Z,12.60
2023-04-12T05:14:07.199Z,10.77
2023-04-12T05:16:46.030Z,9.63
2023-04-12T05:19:27.585Z,8.35
2023-04-12T05:22:20.552Z,9.85
2023-04-12T05:25:14.984Z,11.38
2023-04-12T05:28:07.402Z,7.60
2023-04-12T05:30:53.200Z,8.88
2023-04-12T05:33:41.127Z,7.45
2023-04-12T05:36:27.613Z,14.32
2023-04-12T05:39:10.630Z,7.40
2023-04-12T05:41:55.183Z,5.80
2023-04-12T05:44:41.630Z,7.43
2023-04-12T05:47:31.894Z,8.30
2023-04-12T05:50:21.906Z,7.47
2023-04-12T05:53:08.815Z,8.32
2023-04-12T05:55:50.463Z,9.18
2023-04-12T05:58:34.154Z,7.13
2023-04-12T06:01:20.568Z,6.40
2023-04-12T06:04:01.728Z,6.68
2023-04-12T06:06:43.660Z,7.65
2023-04-12T06:12:13.561Z,9.77
2023-04-12T06:14:52.992Z,5.95
2023-04-12T06:17:31.177Z,7.60
2023-04-12T06:20:15.564Z,6.85
2023-04-12T06:22:56.617Z,17.55
2023-04-12T06:25:37.314Z,8.68
2023-04-12T06:28:28.170Z,5.97
2023-04-12T06:31:12.670Z,7.53
2023-04-12T06:34:02.120Z,31.27
2023-04-12T06:36:56.229Z,38.35
2023-04-12T06:39:37.739Z,13.10
2023-04-12T06:42:14.737Z,6.15
2023-04-12T06:44:51.216Z,10.43
2023-04-12T06:47:51.137Z,16.60
2023-04-12T06:50:38.461Z,8.95
2023-04-12T06:53:17.174Z,7.40
2023-04-12T06:55:57.262Z,8.85
2023-04-12T06:58:41.745Z,5.38
2023-04-12T07:01:26.645Z,4.63
2023-04-12T07:04:17.028Z,9.65
2023-04-12T07:06:59.173Z,5.70
2023-04-12T07:09:48.314Z,9.25
2023-04-12T07:12:34.764Z,5.18
2023-04-12T07:15:17.715Z,5.57
2023-04-12T07:17:56.167Z,8.40
2023-04-12T07:20:38.113Z,9.05
2023-04-12T07:23:21.338Z,4.65
2023-04-12T07:26:08.510Z,9.30
2023-04-12T07:28:48.883Z,11.95
2023-04-12T07:31:38.552Z,6.75
2023-04-12T07:34:16.589Z,9.57
2023-04-12T07:37:02.903Z,7.78
2023-04-12T07:39:42.400Z,10.45
2023-04-12T07:42:29.135Z,6.47
2023-04-12T07:45:08.199Z,6.85
2023-04-12T07:47:57.515Z,8.75
2023-04-12T07:50:42.187Z,8.93
2023-04-12T07:53:42.646Z,6.30
2023-04-12T07:56:34.530Z,7.32
2023-04-12T07:59:21.124Z,6.03
2023-04-12T08:02:03.449Z,5.80
2023-04-12T08:04:45.938Z,6.40
2023-04-12T08:07:35.741Z,7.88
2023-04-12T08:10:16.666Z,5.85
2023-04-12T08:13:00.106Z,8.23
2023-04-12T08:15:44.256Z,9.20
2023-04-12T08:18:25.280Z,7.88
2023-04-12T08:23:52.106Z,5.13
2023-04-12T08:26:29.902Z,4.93
2023-04-12T08:29:20.186Z,6.18
2023-04-12T08:32:11.800Z,7.45
2023-04-12T08:34:55.171Z,4.88
2023-04-12T08:37:35.965Z,11.77
2023-04-12T08:40:22.088Z,7.93
2023-04-12T08:43:13.265Z,7.38
2023-04-12T08:45:57.077Z,6.38
2023-04-12T08:48:47.905Z,10.23
2023-04-12T08:51:40.100Z,6.53
2023-04-12T08:54:21.798Z,9.15
2023-04-12T08:57:17.705Z,6.65
2023-04-12T08:59:57.439Z,7.10
2023-04-12T09:02:38.675Z,5.85
2023-04-12T09:05:23.421Z,5.15
2023-04-12T09:08:01.789Z,5.35
2023-04-12T09:11:06.208Z,9.73
2023-04-12T09:13:52.540Z,5.32
2023-04-12T09:17:11.199Z,5.65
2023-04-12T09:19:55.132Z,7.88
2023-04-12T09:23:02.166Z,5.25
2023-04-12T09:26:09.778Z,10.85
2023-04-12T09:28:56.156Z,8.98
2023-04-12T09:31:34.821Z,5.88
2023-04-12T09:37:25.122Z,4.15
2023-04-12T09:40:15.132Z,4.25
2023-04-12T09:43:03.454Z,4.80
2023-04-12T09:45:50.379Z,6.43
2023-04-12T09:48:38.550Z,4.68
2023-04-12T09:51:16.403Z,7.43
2023-04-12T09:54:01.954Z,5.43
2023-04-12T09:56:48.689Z,3.83
2023-04-12T09:59:38.102Z,3.75
2023-04-12T10:02:33.927Z,5.55
2023-04-12T10:05:18.958Z,3.92
2023-04-12T10:08:09.125Z,5.18
2023-04-12T10:10:49.866Z,3.55
2023-04-12T10:13:33.142Z,3.35
2023-04-12T10:16:18.841Z,4.80
2023-04-12T10:19:04.478Z,2.90
2023-04-12T10:21:48.263Z,3.53
2023-04-12T10:24:25.582Z,4.28
2023-04-12T10:27:10.449Z,4.00
2023-04-12T10:29:54.033Z,2.60
2023-04-12T10:32:35.501Z,3.85
2023-04-12T10:35:21.795Z,2.72
2023-04-12T10:38:17.379Z,4.57
2023-04-12T10:41:21.077Z,2.92
2023-04-12T10:43:54.653Z,5.13
2023-04-12T10:47:06.695Z,5.18
2023-04-12T10:50:30.217Z,7.55
2023-04-12T10:53:31.114Z,3.03
2023-04-12T10:56:33.108Z,5.25
2023-04-12T10:59:24.316Z,3.25
2023-04-12T11:02:25.551Z,3.60
2023-04-12T11:05:19.516Z,3.58
2023-04-12T11:08:09.311Z,2.33
2023-04-12T11:10:58.228Z,4.18
2023-04-12T11:13:54.008Z,4.93
2023-04-12T11:16:34.926Z,3.88
2023-04-12T11:19:25.682Z,3.40
2023-04-12T11:22:12.524Z,3.15
2023-04-12T11:25:05.394Z,4.07
2023-04-12T11:27:55.094Z,3.05
2023-04-12T11:30:53.826Z,3.10
2023-04-12T11:33:48.286Z,4.03
2023-04-12T11:36:31.182Z,2.13
2023-04-12T11:39:18.196Z,3.33
2023-04-12T11:42:16.036Z,4.53
2023-04-12T11:48:00.251Z,6.75
2023-04-12T11:50:49.988Z,2.38
2023-04-12T11:53:46.512Z,2.72
2023-04-12T11:56:32.751Z,4.38
2023-04-12T11:59:07.807Z,3.40
2023-04-12T12:01:59.074Z,2.95
2023-04-12T12:04:40.273Z,3.13
2023-04-12T12:07:24.440Z,2.55
2023-04-12T12:10:06.450Z,2.80
2023-04-12T12:12:51.476Z,3.63
2023-04-12T12:15:39.163Z,5.03
2023-04-12T12:18:31.602Z,2.55
2023-04-12T12:21:14.879Z,3.55
2023-04-12T12:24:01.634Z,3.63
2023-04-12T12:26:42.036Z,4.22
2023-04-12T12:29:28.895Z,2.28
2023-04-12T12:32:24.195Z,4.47
2023-04-12T12:35:08.742Z,4.07
2023-04-12T12:38:06.872Z,3.20
2023-04-12T12:40:52.956Z,4.00
2023-04-12T12:43:55.112Z,5.70
2023-04-12T12:49:24.894Z,4.13
2023-04-12T12:52:11.205Z,3.65
2023-04-12T12:54:53.113Z,4.07
2023-04-12T12:57:35.842Z,3.72
2023-04-12T13:00:12.269Z,4.43
2023-04-12T13:03:03.392Z,2.47
2023-04-12T13:05:49.685Z,5.00
2023-04-12T13:08:40.159Z,6.85
2023-04-12T13:11:18.423Z,2.85
2023-04-12T13:13:59.513Z,6.35
2023-04-12T13:16:41.332Z,6.63
2023-04-12T13:19:18.429Z,5.78
2023-04-12T13:22:05.142Z,6.35
2023-04-12T13:25:00.494Z,4.10
2023-04-12T13:27:46.933Z,3.85
2023-04-12T13:30:32.156Z,6.15
2023-04-12T13:33:09.946Z,4.65
2023-04-12T13:35:58.637Z,4.05
2023-04-12T13:38:40.449Z,3.28
2023-04-12T13:41:23.463Z,3.30
2023-04-12T13:44:11.896Z,5.57
2023-04-12T13:47:01.135Z,5.57
2023-04-12T13:49:43.928Z,4.82
2023-04-12T13:52:31.183Z,3.92
2023-04-12T13:55:17.485Z,2.97
2023-04-12T13:58:03.866Z,3.60
2023-04-12T14:00:56.995Z,2.97
2023-04-12T14:03:38.168Z,4.25
2023-04-12T14:06:20.286Z,4.75
2023-04-12T14:09:06.691Z,6.32
2023-04-12T14:11:56.168Z,4.32
2023-04-12T14:14:39.129Z,3.92
2023-04-12T14:17:21.280Z,3.10
2023-04-12T14:20:02.330Z,4.63
2023-04-12T14:22:57.996Z,5.10
2023-04-12T14:25:42.659Z,3.60
2023-04-12T14:28:31.770Z,5.03
2023-04-12T14:31:15.453Z,3.97
2023-04-12T14:34:05.613Z,3.65
2023-04-12T14:36:45.656Z,3.17
2023-04-12T14:39:36.119Z,4.93
2023-04-12T14:42:22.860Z,3.63
2023-04-12T14:45:01.647Z,4.53
2023-04-12T14:47:48.478Z,4.88
2023-04-12T14:50:30.726Z,4.63
2023-04-12T14:53:16.464Z,5.03
2023-04-12T14:56:08.488Z,4.68
2023-04-12T14:58:52.344Z,2.00
2023-04-12T15:01:40.368Z,4.18
2023-04-12T15:04:30.273Z,3.28
2023-04-12T15:07:16.008Z,3.15
2023-04-12T15:10:10.611Z,6.53
2023-04-12T15:12:54.546Z,3.67
2023-04-12T15:18:20.054Z,3.33
2023-04-12T15:21:11.571Z,3.10
2023-04-12T15:23:53.146Z,2.88
2023-04-12T15:26:37.320Z,2.22
2023-04-12T15:29:25.515Z,4.80
2023-04-12T15:32:08.753Z,2.95
2023-04-12T15:34:53.126Z,5.38
2023-04-12T15:37:44.585Z,3.70
2023-04-12T15:40:34.993Z,2.55
2023-04-12T15:43:24.495Z,5.80
2023-04-12T15:46:08.229Z,2.58
2023-04-12T15:48:55.269Z,2.80
2023-04-12T15:51:37.187Z,4.28
2023-04-12T15:54:19.339Z,2.35
2023-04-12T15:57:02.726Z,4.25
2023-04-12T15:59:50.964Z,3.75
2023-04-12T16:02:28.761Z,3.45
2023-04-12T16:05:18.130Z,2.42
2023-04-12T16:08:04.108Z,2.97
2023-04-12T16:10:55.758Z,3.05
2023-04-12T16:13:47.101Z,2.90
2023-04-12T16:16:29.777Z,3.67
2023-04-12T16:19:13.194Z,2.63
2023-04-12T16:22:01.923Z,4.55
2023-04-12T16:24:53.682Z,3.65
2023-04-12T16:27:33.150Z,3.70
2023-04-12T16:30:16.468Z,5.13
2023-04-12T16:33:03.004Z,4.20
2023-04-12T16:35:42.691Z,2.45
2023-04-12T16:38:25.518Z,2.35
2023-04-12T16:41:14.222Z,5.53
2023-04-12T16:43:59.479Z,4.40
2023-04-12T16:46:47.707Z,6.50
2023-04-12T16:49:35.495Z,5.53
2023-04-12T16:52:29.199Z,4.05
2023-04-12T16:57:58.130Z,4.55
2023-04-12T17:00:45.997Z,4.15
2023-04-12T17:03:31.065Z,4.20
2023-04-12T17:06:19.126Z,4.28
2023-04-12T17:09:03.393Z,4.90
2023-04-12T17:11:50.224Z,5.30
2023-04-12T17:14:24.839Z,8.48
2023-04-12T17:17:06.800Z,4.85
2023-04-12T17:19:56.994Z,5.28
2023-04-12T17:22:37.316Z,3.63
2023-04-12T17:25:18.134Z,5.68
2023-04-12T17:28:21.852Z,5.80
2023-04-12T17:31:09.818Z,7.72
2023-04-12T17:33:54.159Z,11.90
2023-04-12T17:36:38.326Z,8.20
2023-04-12T17:39:21.668Z,18.13
2023-04-12T17:42:08.109Z,15.20
2023-04-12T17:44:52.614Z,15.48
2023-04-12T17:47:35.129Z,16.85
2023-04-12T17:50:17.009Z,15.13
2023-04-12T17:53:03.134Z,20.95
2023-04-12T17:55:58.836Z,17.85
2023-04-12T17:58:41.218Z,11.43
2023-04-12T18:01:29.428Z,17.35
2023-04-12T18:04:22.147Z,8.65
2023-04-12T18:07:03.937Z,11.95
2023-04-12T18:09:48.337Z,10.70
2023-04-12T18:12:29.661Z,10.13
2023-04-12T18:15:15.537Z,11.77
2023-04-12T18:17:56.531Z,6.13
2023-04-12T18:20:45.963Z,5.70
2023-04-12T18:23:47.166Z,3.92
2023-04-12T18:26:29.297Z,6.57
2023-04-12T18:29:17.532Z,8.88
2023-04-12T18:32:07.117Z,8.85
2023-04-12T18:34:54.043Z,10.20
2023-04-12T18:37:40.981Z,9.35
2023-04-12T18:40:19.145Z,8.70
2023-04-12T18:43:03.210Z,8.18
2023-04-12T18:45:54.933Z,7.10
2023-04-12T18:48:35.866Z,13.73
2023-04-12T18:51:29.123Z,8.60
2023-04-12T18:54:23.983Z,14.95
2023-04-12T18:57:21.203Z,11.98
2023-04-12T19:00:07.172Z,24.65
2023-04-12T19:02:54.166Z,35.35
2023-04-12T19:05:44.528Z,25.73
2023-04-12T19:08:29.043Z,26.75
2023-04-12T19:11:11.383Z,18.27
2023-04-12T19:13:54.087Z,16.38
2023-04-12T19:16:34.300Z,16.67
2023-04-12T19:19:20.915Z,18.23
2023-04-12T19:22:15.169Z,24.42
2023-04-12T19:27:48.622Z,32.05
2023-04-12T19:30:32.596Z,44.67
2023-04-12T19:36:03.019Z,54.95
2023-04-12T19:38:43.590Z,54.42
2023-04-12T19:41:32.987Z,48.85
2023-04-12T19:46:54.514Z,51.80
2023-04-12T19:49:32.501Z,46.17
2023-04-12T19:52:20.174Z,54.05
2023-04-12T19:55:06.666Z,45.63
2023-04-12T19:57:59.542Z,44.60
2023-04-12T20:00:48.266Z,38.08
2023-04-12T20:03:55.119Z,38.90
2023-04-12T20:06:45.086Z,29.85
2023-04-12T20:09:34.366Z,29.52
2023-04-12T20:12:24.104Z,35.50
2023-04-12T20:15:05.075Z,27.98
2023-04-12T20:17:54.860Z,33.67
2023-04-12T20:20:36.908Z,37.10
2023-04-12T20:23:15.185Z,35.67
2023-04-12T20:25:57.221Z,36.17
2023-04-12T20:28:49.506Z,34.88
2023-04-12T20:31:30.183Z,30.88
2023-04-12T20:34:13.442Z,33.47
2023-04-12T20:37:01.133Z,34.78
2023-04-12T20:39:36.663Z,32.20
2023-04-12T20:42:26.093Z,32.45
2023-04-12T20:45:18.071Z,38.33
2023-04-12T20:48:09.295Z,46.15
2023-04-12T20:50:48.219Z,61.20
2023-04-12T20:53:34.511Z,69.00
2023-04-12T20:56:23.311Z,69.28
2023-04-12T20:59:03.028Z,72.05
2023-04-12T21:01:46.245Z,66.80
2023-04-12T21:04:27.813Z,76.63
2023-04-12T21:07:07.112Z,93.57
2023-04-12T21:09:55.612Z,94.25
2023-04-12T21:12:39.170Z,84.57
2023-04-12T21:18:04.844Z,78.28
2023-04-12T21:20:45.299Z,84.53
2023-04-12T21:23:19.132Z,95.13
2023-04-12T21:26:02.390Z,86.05
2023-04-12T21:28:51.623Z,86.93
2023-04-12T21:31:39.235Z,94.70
2023-04-12T21:37:00.966Z,107.13
2023-04-12T21:39:39.113Z,92.57
2023-04-12T21:42:38.728Z,97.55
2023-04-12T21:45:23.145Z,85.50
2023-04-12T21:48:07.300Z,99.65
2023-04-12T21:50:55.281Z,96.03
2023-04-12T21:53:33.439Z,100.75
2023-04-12T21:56:14.387Z,99.43
2023-04-12T21:59:05.711Z,92.95
2023-04-12T22:01:51.624Z,92.70
2023-04-12T22:04:40.917Z,86.35
2023-04-12T22:07:28.628Z,81.88
2023-04-12T22:10:18.463Z,78.65
2023-04-12T22:12:59.979Z,82.63
2023-04-12T22:15:43.677Z,77.15
2023-04-12T22:18:28.094Z,75.28
2023-04-12T22:21:08.868Z,65.82
2023-04-12T22:23:51.098Z,67.38
2023-04-12T22:26:26.335Z,58.15
2023-04-12T22:29:13.077Z,56.28
2023-04-12T22:31:59.423Z,52.00
2023-04-12T22:34:39.961Z,49.95
2023-04-12T22:37:19.071Z,52.90
2023-04-12T22:40:06.456Z,47.05
2023-04-12T22:42:51.067Z,48.75
2023-04-12T22:45:27.034Z,48.92
2023-04-12T22:48:14.875Z,43.88
2023-04-12T22:50:54.593Z,47.83
2023-04-12T22:53:37.121Z,46.05
2023-04-12T22:56:24.151Z,43.95
2023-04-12T22:59:05.022Z,44.30
2023-04-12T23:01:56.580Z,44.80
2023-04-12T23:04:35.331Z,47.03
2023-04-12T23:07:24.633Z,49.03
2023-04-12T23:10:10.912Z,43.33
2023-04-12T23:13:06.504Z,42.45
2023-04-12T23:15:45.419Z,39.95
2023-04-12T23:18:27.091Z,38.78
2023-04-12T23:21:14.782Z,33.33
2023-04-12T23:24:08.633Z,41.45
2023-04-12T23:26:45.606Z,35.20
2023-04-12T23:29:33.994Z,37.05
2023-04-12T23:32:17.587Z,34.28
2023-04-12T23:34:54.231Z,35.65
2023-04-12T23:37:43.013Z,34.63
2023-04-12T23:40:20.146Z,41.75
2023-04-12T23:43:06.930Z,33.85
2023-04-12T23:45:49.130Z,37.05
2023-04-12T23:48:29.161Z,27.45
2023-04-12T23:51:15.010Z,30.60
2023-04-12T23:54:06.389Z,36.92
2023-04-12T23:56:59.115Z,30.50
2023-04-12T23:59:38.472Z,25.88
